Time;durP1;ratioP1;P1;durP2;ratioP2;P2;SDS_P1;SDS_P2;PMS_P1;PMS_P2;Temp;Humidity;BMP_temperature;BMP_pressure;BME280_temperature;BME280_humidity;BME280_pressure;Samples;Min_cycle;Max_cycle;Signal;HPM_P1;HPM_P2
2021/03/11 00:00:23;;;;;;;70.15;13.52;;;6.60;1.00;;;;;;5133631;27;20328;-68
2021/03/11 00:02:49;;;;;;;71.15;12.70;;;6.60;1.00;;;;;;5133417;27;20290;-68
2021/03/11 00:05:18;;;;;;;70.07;12.88;;;6.60;1.00;;;;;;5133193;27;20259;-68
2021/03/11 00:07:44;;;;;;;69.50;12.65;;;6.60;1.00;;;;;;5133578;27;20294;-67
2021/03/11 00:10:12;;;;;;;73.35;14.10;;;6.60;1.00;;;;;;5133557;27;20229;-68
2021/03/11 00:12:39;;;;;;;69.50;12.77;;;6.60;1.00;;;;;;5133250;27;20758;-68
2021/03/11 00:15:08;;;;;;;70.35;12.52;;;6.60;1.00;;;;;;5131270;27;20203;-68
2021/03/11 00:17:34;;;;;;;69.20;13.02;;;6.60;1.00;;;;;;5132601;27;20219;-68
2021/03/11 00:20:00;;;;;;;69.60;12.55;;;6.60;1.00;;;;;;5132461;27;20569;-68
2021/03/11 00:22:27;;;;;;;69.93;12.88;;;6.60;1.00;;;;;;5133206;27;20195;-68
2021/03/11 00:24:53;;;;;;;68.90;11.73;;;6.70;1.00;;;;;;5133073;27;20207;-68
2021/03/11 00:27:20;;;;;;;69.70;11.55;;;6.80;1.00;;;;;;5133078;27;20272;-68
2021/03/11 00:29:47;;;;;;;70.20;12.48;;;6.90;1.00;;;;;;5132820;27;20266;-68
2021/03/11 00:32:13;;;;;;;66.30;11.30;;;7.10;1.00;;;;;;5132948;27;20204;-68
2021/03/11 00:34:39;;;;;;;68.93;12.77;;;7.30;1.00;;;;;;5132672;27;20249;-68
2021/03/11 00:37:06;;;;;;;68.78;11.63;;;7.40;1.00;;;;;;5132798;27;20226;-68
2021/03/11 00:39:32;;;;;;;68.38;12.30;;;7.60;1.00;;;;;;5133137;27;20199;-68
2021/03/11 00:41:58;;;;;;;68.20;12.35;;;7.70;1.00;;;;;;5132805;27;20204;-68
2021/03/11 00:44:26;;;;;;;71.63;12.52;;;7.90;1.00;;;;;;5132824;27;20211;-68
2021/03/11 00:46:52;;;;;;;67.28;11.43;;;8.00;1.00;;;;;;5132621;27;20225;-67
2021/03/11 00:49:18;;;;;;;67.05;10.88;;;8.10;1.00;;;;;;5132791;27;20235;-68
2021/03/11 00:51:45;;;;;;;68.20;12.87;;;8.20;1.00;;;;;;5132985;27;20211;-67
2021/03/11 00:54:11;;;;;;;67.55;11.38;;;8.30;1.00;;;;;;5132699;27;20445;-68
2021/03/11 00:56:37;;;;;;;70.23;12.23;;;8.30;1.00;;;;;;5132523;27;20704;-68
2021/03/11 00:59:04;;;;;;;73.47;14.17;;;8.40;1.00;;;;;;5132549;27;20449;-68
2021/03/11 01:01:31;;;;;;;69.68;11.77;;;8.50;1.00;;;;;;5132354;27;20971;-68
2021/03/11 01:03:57;;;;;;;67.07;11.35;;;8.50;1.00;;;;;;5130959;27;20291;-68
2021/03/11 01:06:24;;;;;;;66.50;10.82;;;8.50;1.00;;;;;;5129464;27;20224;-68
2021/03/11 01:08:50;;;;;;;69.87;12.47;;;8.60;1.00;;;;;;5132261;27;20585;-68
2021/03/11 01:11:17;;;;;;;68.47;12.10;;;8.60;1.00;;;;;;5132318;27;20478;-68
2021/03/11 01:13:43;;;;;;;68.15;11.32;;;8.60;1.00;;;;;;5132130;27;20440;-68
2021/03/11 01:16:10;;;;;;;68.60;12.00;;;8.70;1.00;;;;;;5132107;27;20306;-68
2021/03/11 01:18:37;;;;;;;68.57;12.90;;;8.70;1.00;;;;;;5132143;27;20529;-67
2021/03/11 01:21:04;;;;;;;67.95;11.50;;;8.70;1.00;;;;;;5112060;28;20207;-68
2021/03/11 01:23:30;;;;;;;68.28;12.40;;;8.70;1.00;;;;;;5111658;28;20205;-68
2021/03/11 01:25:56;;;;;;;65.20;10.27;;;8.80;1.00;;;;;;5111802;28;20248;-68
2021/03/11 01:28:23;;;;;;;67.60;11.73;;;8.80;1.00;;;;;;5111741;28;20205;-68
2021/03/11 01:30:49;;;;;;;67.93;11.57;;;8.80;1.00;;;;;;5112101;28;20478;-68
2021/03/11 01:33:16;;;;;;;69.30;11.60;;;8.70;1.00;;;;;;5111814;28;20792;-68
2021/03/11 01:35:43;;;;;;;68.10;10.80;;;8.70;1.00;;;;;;5111758;28;20536;-68
2021/03/11 01:38:09;;;;;;;67.03;11.02;;;8.70;1.00;;;;;;5111764;28;20228;-68
2021/03/11 01:40:36;;;;;;;65.07;10.87;;;8.70;1.00;;;;;;5113453;28;20201;-68
2021/03/11 01:43:02;;;;;;;68.80;12.20;;;8.80;1.00;;;;;;5115602;28;20501;-68
2021/03/11 01:45:29;;;;;;;66.30;11.20;;;8.80;1.00;;;;;;5115450;28;20960;-68
2021/03/11 01:47:56;;;;;;;68.40;11.40;;;8.80;1.00;;;;;;5115454;28;20990;-68
2021/03/11 01:50:22;;;;;;;66.05;10.60;;;8.80;1.00;;;;;;5115666;28;20483;-68
2021/03/11 01:52:51;;;;;;;63.97;10.07;;;8.90;1.00;;;;;;5115353;28;20216;-68
2021/03/11 01:55:18;;;;;;;63.90;10.00;;;8.90;1.00;;;;;;5115599;28;20927;-68
2021/03/11 01:57:46;;;;;;;66.90;10.40;;;8.90;1.00;;;;;;5115355;28;20238;-68
2021/03/11 02:00:15;;;;;;;64.67;9.17;;;8.90;1.00;;;;;;5115532;28;20513;-67
2021/03/11 02:02:42;;;;;;;66.50;9.53;;;8.90;1.00;;;;;;5115292;28;20503;-68
2021/03/11 02:05:10;;;;;;;64.00;8.83;;;8.90;1.00;;;;;;5115294;28;20447;-68
2021/03/11 02:07:36;;;;;;;63.97;9.27;;;8.90;1.00;;;;;;5115277;28;20542;-68
2021/03/11 02:10:05;;;;;;;62.47;8.60;;;8.90;1.00;;;;;;5114978;28;20866;-68
2021/03/11 02:12:38;;;;;;;63.30;8.93;;;8.90;1.00;;;;;;5114913;27;21032;-68
2021/03/11 02:15:09;;;;;;;63.63;9.05;;;8.90;1.00;;;;;;5115263;28;20446;-68
2021/03/11 02:17:41;;;;;;;62.47;7.53;;;8.90;1.00;;;;;;5114917;28;20708;-68
2021/03/11 02:20:21;;;;;;;63.17;7.50;;;8.90;1.00;;;;;;5115018;28;20277;-68
2021/03/11 02:23:05;;;;;;;61.07;7.00;;;8.90;1.00;;;;;;5114846;28;20231;-68
2021/03/11 02:25:43;;;;;;;63.63;8.45;;;8.90;1.00;;;;;;5114921;28;20538;-68
2021/03/11 02:28:19;;;;;;;62.72;7.65;;;9.00;1.00;;;;;;5115053;28;20228;-68
2021/03/11 02:30:46;;;;;;;63.10;7.00;;;8.90;1.00;;;;;;5114807;28;20718;-68
2021/03/11 02:33:14;;;;;;;64.40;7.67;;;8.90;1.00;;;;;;5114589;28;20458;-68
2021/03/11 02:35:42;;;;;;;63.40;6.70;;;8.90;1.00;;;;;;5114714;28;20867;-68
2021/03/11 02:38:12;;;;;;;60.03;5.40;;;8.90;1.00;;;;;;5114792;28;20461;-68
2021/03/11 02:40:40;;;;;;;61.17;6.93;;;8.90;1.00;;;;;;5114612;28;20524;-68
2021/03/11 02:43:12;;;;;;;62.10;7.00;;;8.90;1.00;;;;;;5114503;28;20447;-68
2021/03/11 02:45:40;;;;;;;66.67;8.67;;;8.90;1.00;;;;;;5114450;28;20533;-68
2021/03/11 02:48:11;;;;;;;69.07;11.07;;;8.80;1.00;;;;;;5114650;28;20550;-68
2021/03/11 02:50:39;;;;;;;65.63;9.65;;;8.80;1.00;;;;;;5114370;28;20575;-68
2021/03/11 02:53:08;;;;;;;64.30;8.77;;;8.80;1.00;;;;;;5113245;28;20299;-68
2021/03/11 02:55:37;;;;;;;63.40;8.70;;;8.70;1.00;;;;;;5114334;28;20446;-68
2021/03/11 02:58:04;;;;;;;62.92;9.15;;;8.70;1.00;;;;;;5114214;27;20465;-68
2021/03/11 03:00:32;;;;;;;68.60;11.87;;;8.70;1.00;;;;;;5114019;28;20673;-68
2021/03/11 03:02:58;;;;;;;69.90;14.00;;;8.60;1.00;;;;;;5114298;28;20450;-68
2021/03/11 03:05:28;;;;;;;68.20;11.83;;;8.60;1.00;;;;;;5122238;27;20959;-68
2021/03/11 03:07:55;;;;;;;65.13;10.40;;;8.50;1.00;;;;;;5134911;27;20473;-68
2021/03/11 03:10:27;;;;;;;65.13;10.73;;;8.50;1.00;;;;;;5134312;27;20485;-68
2021/03/11 03:12:56;;;;;;;70.10;9.70;;;8.50;1.00;;;;;;5134193;27;20446;-68
2021/03/11 03:15:23;;;;;;;63.10;8.83;;;8.50;1.00;;;;;;5134426;27;20232;-68
2021/03/11 03:17:51;;;;;;;67.80;9.93;;;8.40;1.00;;;;;;5134505;27;20832;-68
2021/03/11 03:20:20;;;;;;;65.25;10.38;;;8.40;1.00;;;;;;5134036;27;20516;-68
2021/03/11 03:22:48;;;;;;;65.55;10.40;;;8.40;1.00;;;;;;5134335;27;20256;-68
2021/03/11 03:25:16;;;;;;;69.68;9.18;;;8.40;1.00;;;;;;5134195;27;20299;-68
2021/03/11 03:27:53;;;;;;;64.57;9.57;;;8.40;1.00;;;;;;5134452;27;20255;-68
2021/03/11 03:30:20;;;;;;;65.03;10.30;;;8.40;1.00;;;;;;5134280;27;20270;-68
2021/03/11 03:32:47;;;;;;;66.82;10.10;;;8.40;1.00;;;;;;5134287;27;20474;-68
2021/03/11 03:35:15;;;;;;;64.93;10.37;;;8.40;1.00;;;;;;5133951;27;20211;-68
2021/03/11 03:37:42;;;;;;;65.87;10.33;;;8.40;1.00;;;;;;5134089;27;20472;-68
2021/03/11 03:40:12;;;;;;;66.77;10.87;;;8.30;1.00;;;;;;5134212;27;20445;-68
2021/03/11 03:42:42;;;;;;;65.93;9.75;;;8.30;1.00;;;;;;5133864;27;20534;-68
2021/03/11 03:45:13;;;;;;;64.97;10.57;;;8.30;1.00;;;;;;5127966;27;20215;-68
2021/03/11 03:47:42;;;;;;;63.30;9.27;;;8.20;1.00;;;;;;5133795;27;20472;-67
2021/03/11 03:50:10;;;;;;;65.93;10.47;;;8.20;1.00;;;;;;5133610;27;20557;-68
2021/03/11 03:52:40;;;;;;;65.35;9.90;;;8.20;1.00;;;;;;5133389;27;20450;-68
2021/03/11 03:55:08;;;;;;;65.23;9.80;;;8.20;1.00;;;;;;5133674;27;20684;-68
2021/03/11 03:57:36;;;;;;;64.17;9.20;;;8.20;1.00;;;;;;5133495;27;21004;-67
2021/03/11 04:00:07;;;;;;;65.10;8.02;;;8.20;1.00;;;;;;5133625;27;20439;-68
2021/03/11 04:02:35;;;;;;;64.70;8.40;;;8.20;1.00;;;;;;5133058;27;20207;-68
2021/03/11 04:05:02;;;;;;;66.00;8.37;;;8.20;1.00;;;;;;5133316;27;20446;-68
2021/03/11 04:07:30;;;;;;;63.27;8.50;;;8.30;1.00;;;;;;5133756;27;20475;-68
2021/03/11 04:09:57;;;;;;;63.37;7.97;;;8.40;1.00;;;;;;5133156;27;20509;-68
2021/03/11 04:12:25;;;;;;;61.73;7.60;;;8.50;1.00;;;;;;5133326;27;20917;-68
2021/03/11 04:14:54;;;;;;;66.30;7.83;;;8.50;1.00;;;;;;5133483;27;20600;-68
2021/03/11 04:17:21;;;;;;;62.57;7.97;;;8.70;1.00;;;;;;5133667;27;20466;-68
2021/03/11 04:19:48;;;;;;;62.67;8.03;;;8.70;1.00;;;;;;5133166;27;20507;-68
2021/03/11 04:22:15;;;;;;;61.57;6.33;;;8.80;1.00;;;;;;5133039;27;20944;-68
2021/03/11 04:24:42;;;;;;;62.97;7.20;;;8.90;1.00;;;;;;5133328;27;20449;-65
2021/03/11 04:27:09;;;;;;;60.70;7.20;;;9.00;1.00;;;;;;5133208;27;20663;-66
2021/03/11 04:29:36;;;;;;;63.50;6.90;;;9.00;1.00;;;;;;5133165;27;20452;-66
2021/03/11 04:32:04;;;;;;;65.07;6.40;;;9.10;1.00;;;;;;5132831;27;20536;-65
2021/03/11 04:34:33;;;;;;;60.17;5.73;;;9.20;1.00;;;;;;5132799;27;20982;-66
2021/03/11 04:37:00;;;;;;;61.70;6.53;;;9.20;1.00;;;;;;5132918;27;20464;-68
2021/03/11 04:39:27;;;;;;;61.27;5.60;;;9.30;1.00;;;;;;5133028;27;20451;-67
2021/03/11 04:41:54;;;;;;;60.10;6.27;;;9.30;1.00;;;;;;5132892;27;20446;-66
2021/03/11 04:44:22;;;;;;;61.43;6.63;;;9.40;1.00;;;;;;5132803;27;20529;-66
2021/03/11 04:46:49;;;;;;;61.80;6.37;;;9.40;1.00;;;;;;5132541;27;20463;-66
2021/03/11 04:49:18;;;;;;;59.53;5.43;;;9.50;1.00;;;;;;5132969;27;20533;-66
2021/03/11 04:51:45;;;;;;;61.00;6.47;;;9.50;1.00;;;;;;5132921;27;20480;-67
2021/03/11 04:54:13;;;;;;;62.00;6.13;;;9.50;1.00;;;;;;5132657;27;20874;-66
2021/03/11 04:56:41;;;;;;;58.70;5.43;;;9.60;1.00;;;;;;5132627;27;20567;-66
2021/03/11 04:59:09;;;;;;;59.80;5.47;;;9.60;1.00;;;;;;5132419;27;20454;-66
2021/03/11 05:01:40;;;;;;;58.80;5.17;;;9.70;1.00;;;;;;5132965;27;20474;-67
2021/03/11 05:04:07;;;;;;;59.40;5.37;;;9.70;1.00;;;;;;5132123;27;20447;-67
2021/03/11 05:06:34;;;;;;;57.87;4.83;;;9.80;1.00;;;;;;5131377;27;20520;-67
2021/03/11 05:09:00;;;;;;;64.47;5.33;;;9.90;1.00;;;;;;5132253;27;20924;-67
2021/03/11 05:11:27;;;;;;;63.90;4.73;;;9.90;1.00;;;;;;5132169;27;20489;-67
2021/03/11 05:13:53;;;;;;;60.40;5.23;;;10.00;1.00;;;;;;5131816;27;20443;-67
2021/03/11 05:16:19;;;;;;;60.77;5.20;;;10.10;1.00;;;;;;5131974;27;20472;-67
2021/03/11 05:18:46;;;;;;;59.80;4.60;;;10.10;1.00;;;;;;5132514;27;20449;-68
2021/03/11 05:21:13;;;;;;;58.03;4.67;;;10.20;1.00;;;;;;5132345;27;20477;-68
2021/03/11 05:23:40;;;;;;;62.10;4.40;;;10.20;1.00;;;;;;5132129;27;20443;-67
2021/03/11 05:26:07;;;;;;;57.47;3.63;;;10.30;1.00;;;;;;5132055;27;21021;-67
2021/03/11 05:28:33;;;;;;;61.07;5.00;;;10.30;1.00;;;;;;5132505;27;20487;-68
2021/03/11 05:30:59;;;;;;;58.93;4.80;;;10.30;1.00;;;;;;5126291;27;20527;-67
2021/03/11 05:33:26;;;;;;;59.63;4.63;;;10.40;1.00;;;;;;5132047;27;20493;-67
2021/03/11 05:35:53;;;;;;;62.23;4.90;;;10.40;1.00;;;;;;5131999;27;20589;-67
2021/03/11 05:38:19;;;;;;;58.20;4.50;;;10.50;1.00;;;;;;5132381;27;20457;-67
2021/03/11 05:40:51;;;;;;;58.97;5.03;;;10.50;1.00;;;;;;5132022;27;20451;-67
2021/03/11 05:43:18;;;;;;;61.10;5.07;;;10.50;1.00;;;;;;5132291;27;20447;-67
2021/03/11 05:45:46;;;;;;;58.50;4.73;;;10.50;1.00;;;;;;5132378;27;20518;-67
2021/03/11 05:48:15;;;;;;;58.97;4.73;;;10.50;1.00;;;;;;5132357;27;20517;-67
2021/03/11 05:50:42;;;;;;;61.83;4.70;;;10.50;1.00;;;;;;5132030;27;20551;-67
2021/03/11 05:53:11;;;;;;;57.87;4.07;;;10.60;1.00;;;;;;5132056;27;20454;-68
2021/03/11 05:55:37;;;;;;;60.27;4.93;;;10.50;1.00;;;;;;5131891;27;20505;-67
2021/03/11 05:58:04;;;;;;;58.60;4.70;;;10.50;1.00;;;;;;5132119;27;20523;-67
2021/03/11 06:00:31;;;;;;;58.80;4.73;;;10.50;1.00;;;;;;5132096;27;20445;-67
2021/03/11 06:02:59;;;;;;;59.90;5.10;;;10.50;1.00;;;;;;5132069;27;20531;-68
2021/03/11 06:05:27;;;;;;;59.97;4.73;;;10.60;1.00;;;;;;5131877;27;20543;-67
2021/03/11 06:07:54;;;;;;;60.07;4.50;;;10.60;1.00;;;;;;5131694;27;20552;-68
2021/03/11 06:10:21;;;;;;;59.70;4.80;;;10.50;1.00;;;;;;5132149;27;20508;-67
2021/03/11 06:12:49;;;;;;;58.67;4.70;;;10.60;1.00;;;;;;5131940;27;21011;-67
2021/03/11 06:15:24;;;;;;;59.43;4.37;;;10.60;1.00;;;;;;5131888;27;20520;-67
2021/03/11 06:17:50;;;;;;;61.03;4.90;;;10.60;1.00;;;;;;5131969;27;20473;-67
2021/03/11 06:20:17;;;;;;;58.50;4.37;;;10.60;1.00;;;;;;5131715;27;20529;-67
2021/03/11 06:22:43;;;;;;;59.00;4.50;;;10.60;1.00;;;;;;5132062;27;20447;-67
2021/03/11 06:25:11;;;;;;;58.17;4.60;;;10.60;1.00;;;;;;5131746;27;20938;-68
2021/03/11 06:27:37;;;;;;;58.60;4.70;;;10.60;1.00;;;;;;5135136;27;20466;-68
2021/03/11 06:30:05;;;;;;;58.70;4.80;;;10.60;1.00;;;;;;5135172;27;20479;-68
2021/03/11 06:32:52;;;;;;;58.63;4.30;;;10.60;1.00;;;;;;5135419;27;20866;-67
2021/03/11 06:35:20;;;;;;;60.07;4.83;;;10.60;1.00;;;;;;5135348;27;20454;-68
2021/03/11 06:37:48;;;;;;;58.10;4.63;;;10.70;1.00;;;;;;5135202;27;20987;-68
2021/03/11 06:40:16;;;;;;;59.17;4.00;;;10.60;1.00;;;;;;5135561;27;20450;-68
2021/03/11 06:42:42;;;;;;;58.13;4.37;;;10.60;1.00;;;;;;5135369;27;20900;-68
2021/03/11 06:45:22;;;;;;;60.90;4.47;;;10.60;1.00;;;;;;5135584;27;20516;-68
2021/03/11 06:47:51;;;;;;;57.97;4.07;;;10.60;1.00;;;;;;5135095;27;20469;-67
2021/03/11 06:50:17;;;;;;;58.80;4.40;;;10.60;1.00;;;;;;5135110;27;20477;-68
2021/03/11 06:53:02;;;;;;;59.17;4.70;;;10.60;1.00;;;;;;5134043;27;20443;-67
2021/03/11 06:55:28;;;;;;;60.37;4.20;;;10.60;1.00;;;;;;5135117;27;20443;-67
2021/03/11 06:57:55;;;;;;;58.70;4.23;;;10.70;1.00;;;;;;5133817;27;20470;-67
2021/03/11 07:00:23;;;;;;;59.17;4.20;;;10.80;1.00;;;;;;5134622;27;20454;-67
2021/03/11 07:02:52;;;;;;;57.70;4.20;;;10.90;1.00;;;;;;5134891;27;20471;-68
2021/03/11 07:05:20;;;;;;;63.30;5.00;;;10.90;1.00;;;;;;5131401;27;20452;-68
2021/03/11 07:07:47;;;;;;;58.27;3.60;;;;;;;;;;5134263;27;20967;-67
2021/03/11 07:10:24;;;;;;;61.23;4.33;;;11.00;1.00;;;;;;5134501;27;20849;-67
2021/03/11 07:12:51;;;;;;;59.27;3.80;;;11.10;1.00;;;;;;5134649;27;20447;-67
2021/03/11 07:15:20;;;;;;;59.67;4.10;;;11.20;1.00;;;;;;5134614;27;20447;-67
2021/03/11 07:17:46;;;;;;;58.77;4.00;;;11.30;1.00;;;;;;5134633;27;20559;-67
2021/03/11 07:20:16;;;;;;;61.73;3.73;;;11.30;1.00;;;;;;5134692;27;20530;-68
2021/03/11 07:22:59;;;;;;;59.27;3.90;;;11.40;1.00;;;;;;5134277;27;20526;-68
2021/03/11 07:25:28;;;;;;;57.50;3.40;;;11.40;1.00;;;;;;5134580;27;20879;-68
2021/03/11 07:27:54;;;;;;;60.73;3.90;;;11.50;1.00;;;;;;5134630;27;20517;-68
2021/03/11 07:30:24;;;;;;;59.10;4.00;;;11.50;1.00;;;;;;5134143;27;20497;-68
2021/03/11 07:32:57;;;;;;;60.97;3.83;;;11.60;1.00;;;;;;5134161;27;20500;-68
2021/03/11 07:35:26;;;;;;;58.27;4.20;;;11.70;1.00;;;;;;5133999;27;20543;-67
2021/03/11 07:37:56;;;;;;;66.50;3.80;;;11.70;1.00;;;;;;5130146;27;20479;-68
2021/03/11 07:40:23;;;;;;;57.30;3.50;;;11.70;1.00;;;;;;5128743;27;20493;-67
2021/03/11 07:42:50;;;;;;;61.53;3.90;;;11.80;1.00;;;;;;5129960;27;20568;-67
2021/03/11 07:45:17;;;;;;;60.30;3.60;;;11.80;1.00;;;;;;5129260;27;20448;-67
2021/03/11 07:47:43;;;;;;;57.60;3.27;;;11.90;1.00;;;;;;5127301;27;20482;-67
2021/03/11 07:50:12;;;;;;;57.90;3.93;;;11.90;1.00;;;;;;5128592;27;20448;-67
2021/03/11 07:52:39;;;;;;;56.70;3.17;;;12.00;1.00;;;;;;5130395;27;20662;-68
2021/03/11 07:55:08;;;;;;;57.37;3.53;;;12.10;1.00;;;;;;5133787;27;20441;-67
2021/03/11 07:57:39;;;;;;;57.70;3.53;;;12.10;1.00;;;;;;5129914;27;20543;-67
2021/03/11 08:00:07;;;;;;;57.67;3.70;;;12.20;1.00;;;;;;5113453;28;20468;-67
2021/03/11 08:02:35;;;;;;;59.17;3.80;;;12.30;1.00;;;;;;5112951;28;20945;-68
2021/03/11 08:05:02;;;;;;;56.40;2.90;;;12.40;1.00;;;;;;5113018;28;20558;-67
2021/03/11 08:07:29;;;;;;;57.30;3.73;;;12.40;1.00;;;;;;5113277;28;20469;-68
2021/03/11 08:09:57;;;;;;;58.40;3.43;;;12.40;1.00;;;;;;5127584;27;20456;-69
2021/03/11 08:12:37;;;;;;;57.60;3.90;;;12.50;1.00;;;;;;5125117;27;20479;-69
2021/03/11 08:15:05;;;;;;;62.13;3.47;;;12.50;1.00;;;;;;5120979;27;20967;-68
2021/03/11 08:17:43;;;;;;;58.73;3.60;;;12.60;1.00;;;;;;5123356;27;20468;-67
2021/03/11 08:20:38;;;;;;;57.10;3.43;;;12.70;1.00;;;;;;5125825;27;20468;-67
2021/03/11 08:23:10;;;;;;;58.73;3.30;;;12.80;1.00;;;;;;5133181;27;20440;-68
2021/03/11 08:25:47;;;;;;;58.10;3.87;;;;;;;;;;5133048;27;20444;-67
2021/03/11 08:28:41;;;;;;;57.63;3.93;;;12.90;1.00;;;;;;5133036;27;20999;-68
2021/03/11 08:31:09;;;;;;;66.80;3.60;;;13.10;1.00;;;;;;5132189;27;20504;-67
2021/03/11 08:33:51;;;;;;;57.73;3.40;;;13.20;1.00;;;;;;5132878;27;20489;-67
2021/03/11 08:36:39;;;;;;;58.40;3.10;;;13.30;1.00;;;;;;5130927;27;20873;-68
2021/03/11 08:39:31;;;;;;;56.70;2.80;;;13.30;1.00;;;;;;5133071;27;20455;-69
2021/03/11 08:41:57;;;;;;;58.57;3.10;;;13.30;1.00;;;;;;5131402;27;20441;-69
2021/03/11 08:44:43;;;;;;;61.10;3.50;;;13.40;1.00;;;;;;5132649;27;20528;-69
2021/03/11 08:47:10;;;;;;;57.57;3.80;;;13.40;1.00;;;;;;5132973;27;20456;-68
2021/03/11 08:49:42;;;;;;;59.23;3.93;;;13.50;1.00;;;;;;5133239;27;20462;-68
2021/03/11 08:52:44;;;;;;;59.03;3.33;;;13.50;1.00;;;;;;5132675;27;20480;-69
2021/03/11 08:55:33;;;;;;;62.07;3.30;;;13.60;1.00;;;;;;5133279;27;20436;-68
2021/03/11 08:58:00;;;;;;;58.40;4.60;;;13.70;1.00;;;;;;5132879;27;20464;-68
2021/03/11 09:00:58;;;;;;;59.30;3.60;;;13.80;1.00;;;;;;5132744;27;20460;-69
2021/03/11 09:03:39;;;;;;;58.20;3.40;;;14.00;1.00;;;;;;5132529;27;20527;-69
2021/03/11 09:06:07;;;;;;;57.47;3.30;;;14.10;1.00;;;;;;5132581;27;20447;-68
2021/03/11 09:08:35;;;;;;;58.90;3.30;;;14.20;1.00;;;;;;5132687;27;20491;-69
2021/03/11 09:11:09;;;;;;;61.00;3.60;;;14.20;1.00;;;;;;5132546;27;20575;-69
2021/03/11 09:13:39;;;;;;;58.77;3.10;;;14.20;1.00;;;;;;5132354;27;20873;-68
2021/03/11 09:16:05;;;;;;;59.17;3.60;;;14.10;1.00;;;;;;5131545;27;20948;-69
2021/03/11 09:18:32;;;;;;;56.60;3.00;;;14.00;1.00;;;;;;5131867;27;20444;-68
2021/03/11 09:20:59;;;;;;;57.90;2.90;;;14.00;1.00;;;;;;5132509;27;20839;-69
2021/03/11 09:23:40;;;;;;;57.17;3.00;;;14.00;1.00;;;;;;5132340;27;20521;-68
2021/03/11 09:26:07;;;;;;;56.83;2.67;;;13.90;1.00;;;;;;5132691;27;20463;-68
2021/03/11 09:28:34;;;;;;;56.97;3.67;;;14.00;1.00;;;;;;5132761;27;20447;-68
2021/03/11 09:31:01;;;;;;;57.33;3.30;;;14.00;1.00;;;;;;5132565;27;20570;-68
2021/03/11 09:33:28;;;;;;;57.57;3.03;;;14.00;1.00;;;;;;5132373;27;20466;-69
2021/03/11 09:35:54;;;;;;;56.97;3.10;;;14.00;1.00;;;;;;5132126;27;20469;-68
2021/03/11 09:38:23;;;;;;;73.90;3.33;;;13.90;1.00;;;;;;5132170;27;20501;-68
2021/03/11 09:40:52;;;;;;;56.20;2.83;;;13.90;1.00;;;;;;5132247;27;20969;-68
2021/03/11 09:43:26;;;;;;;57.23;3.80;;;13.90;1.00;;;;;;5132412;27;20465;-69
2021/03/11 09:45:56;;;;;;;58.47;3.10;;;13.90;1.00;;;;;;5132708;27;20773;-69
2021/03/11 09:48:25;;;;;;;56.17;2.60;;;13.90;1.00;;;;;;5132311;27;20444;-68
2021/03/11 09:51:03;;;;;;;57.17;2.90;;;13.90;1.00;;;;;;5131851;27;20566;-69
2021/03/11 09:53:35;;;;;;;57.70;3.20;;;13.90;1.00;;;;;;5132169;27;20445;-68
2021/03/11 09:56:03;;;;;;;57.37;3.47;;;13.90;1.00;;;;;;5132338;27;20531;-68
2021/03/11 09:58:30;;;;;;;57.67;3.37;;;14.00;1.00;;;;;;5132260;27;20877;-68
2021/03/11 10:00:57;;;;;;;56.77;2.97;;;14.00;1.00;;;;;;5132848;27;20440;-68
2021/03/11 10:03:25;;;;;;;60.57;3.10;;;14.10;1.00;;;;;;5135811;27;20536;-68
2021/03/11 10:05:57;;;;;;;56.87;2.90;;;14.10;1.00;;;;;;5135884;27;20445;-68
2021/03/11 10:08:32;;;;;;;57.07;2.90;;;14.10;1.00;;;;;;5136423;27;20444;-68
2021/03/11 10:11:11;;;;;;;56.67;3.00;;;14.10;1.00;;;;;;5136027;27;20566;-69
2021/03/11 10:13:40;;;;;;;56.30;2.90;;;14.10;1.00;;;;;;5135690;27;20471;-68
2021/03/11 10:16:07;;;;;;;58.57;2.60;;;14.20;1.00;;;;;;5136126;27;20543;-69
2021/03/11 10:18:34;;;;;;;57.50;2.80;;;14.20;1.00;;;;;;5135736;27;20492;-68
2021/03/11 10:21:03;;;;;;;56.40;2.47;;;14.30;1.00;;;;;;5135937;27;20436;-68
2021/03/11 10:23:30;;;;;;;57.47;3.20;;;14.40;1.00;;;;;;5135812;27;20440;-67
2021/03/11 10:26:29;;;;;;;56.70;3.00;;;14.40;1.00;;;;;;5135591;27;20455;-68
2021/03/11 10:29:04;;;;;;;57.47;3.30;;;14.50;1.00;;;;;;5072182;28;20466;-68
2021/03/11 10:31:32;;;;;;;56.47;2.50;;;14.60;1.00;;;;;;5125261;27;20574;-68
2021/03/11 10:34:03;;;;;;;59.43;2.77;;;14.60;1.00;;;;;;5135433;27;20748;-68
2021/03/11 10:36:30;;;;;;;60.90;2.73;;;14.60;1.00;;;;;;5135085;27;20472;-69
2021/03/11 10:39:07;;;;;;;57.70;2.80;;;14.60;1.00;;;;;;5135565;27;20448;-68
2021/03/11 10:41:36;;;;;;;61.30;3.73;;;14.70;1.00;;;;;;5135613;27;20527;-69
2021/03/11 10:44:12;;;;;;;56.20;2.50;;;14.80;1.00;;;;;;5135437;27;20455;-69
2021/03/11 10:46:40;;;;;;;59.50;3.30;;;14.90;1.00;;;;;;5135179;27;20509;-69
2021/03/11 10:49:07;;;;;;;58.57;2.60;;;15.10;1.00;;;;;;5135067;27;20513;-69
2021/03/11 10:51:34;;;;;;;63.07;2.40;;;15.20;1.00;;;;;;5135599;27;20480;-69
2021/03/11 10:54:00;;;;;;;60.57;2.83;;;15.30;1.00;;;;;;5134961;27;20472;-68
2021/03/11 10:56:27;;;;;;;57.50;2.83;;;15.40;1.00;;;;;;5135127;27;20460;-69
2021/03/11 10:59:03;;;;;;;61.70;2.77;;;15.30;1.00;;;;;;5135063;27;20480;-68
2021/03/11 11:01:30;;;;;;;57.60;2.87;;;15.30;1.00;;;;;;5134954;27;20527;-69
2021/03/11 11:03:59;;;;;;;56.60;2.90;;;15.20;1.00;;;;;;5135140;27;20452;-69
2021/03/11 11:06:26;;;;;;;57.03;2.93;;;15.10;1.00;;;;;;5135227;27;20834;-69
2021/03/11 11:08:52;;;;;;;56.10;2.50;;;15.00;1.00;;;;;;5135038;27;20527;-69
2021/03/11 11:11:20;;;;;;;56.40;2.60;;;14.90;1.00;;;;;;5134875;27;20602;-68
2021/03/11 11:13:47;;;;;;;58.87;2.37;;;14.70;1.00;;;;;;5133325;27;20531;-69
2021/03/11 11:16:15;;;;;;;55.90;2.43;;;14.60;1.00;;;;;;5134515;27;20487;-68
2021/03/11 11:18:42;;;;;;;57.17;2.60;;;14.40;1.00;;;;;;5134352;27;20999;-68
2021/03/11 11:21:08;;;;;;;59.90;2.87;;;14.20;1.00;;;;;;5134670;27;20482;-67
2021/03/11 11:23:35;;;;;;;56.43;2.60;;;13.90;1.00;;;;;;5134441;27;20533;-67
2021/03/11 11:26:02;;;;;;;58.27;2.80;;;13.70;1.00;;;;;;5134181;27;20452;-66
2021/03/11 11:28:28;;;;;;;59.80;2.80;;;13.60;1.00;;;;;;5134370;27;20444;-66
2021/03/11 11:30:55;;;;;;;56.40;2.50;;;13.40;1.00;;;;;;5134066;27;20566;-66
2021/03/11 11:33:22;;;;;;;56.53;2.80;;;13.30;1.00;;;;;;5132776;27;20523;-66
2021/03/11 11:35:50;;;;;;;58.90;3.47;;;13.20;1.00;;;;;;5133771;27;20512;-67
2021/03/11 11:38:16;;;;;;;56.00;2.47;;;13.10;1.00;;;;;;5132979;27;20535;-67
2021/03/11 11:40:43;;;;;;;56.17;2.60;;;12.90;1.00;;;;;;5133964;27;20520;-67
2021/03/11 11:43:10;;;;;;;56.17;2.40;;;12.80;1.00;;;;;;5133856;27;20452;-67
2021/03/11 11:45:37;;;;;;;56.47;2.90;;;12.70;1.00;;;;;;5134265;27;20444;-67
2021/03/11 11:48:03;;;;;;;59.97;2.83;;;12.70;1.00;;;;;;5134103;27;20473;-67
2021/03/11 11:50:31;;;;;;;58.27;2.60;;;12.60;1.00;;;;;;5134020;27;20471;-67
2021/03/11 11:52:57;;;;;;;58.47;2.57;;;12.60;1.00;;;;;;5133962;27;20448;-67
2021/03/11 11:55:23;;;;;;;57.37;2.43;;;12.50;1.00;;;;;;5133832;27;20956;-68
2021/03/11 11:57:50;;;;;;;57.00;2.40;;;12.50;1.00;;;;;;5133581;27;20461;-67
2021/03/11 12:00:18;;;;;;;56.03;2.50;;;12.50;1.00;;;;;;5133986;27;20447;-67
2021/03/11 12:02:44;;;;;;;58.17;3.10;;;12.50;1.00;;;;;;5133516;27;20448;-68
2021/03/11 12:05:12;;;;;;;56.57;2.60;;;12.60;1.00;;;;;;5133717;27;20511;-68
2021/03/11 12:07:39;;;;;;;57.77;2.70;;;12.70;1.00;;;;;;5133645;27;20479;-68
2021/03/11 12:10:08;;;;;;;55.90;2.50;;;12.80;1.00;;;;;;5133492;27;20445;-68
2021/03/11 12:12:35;;;;;;;56.17;2.67;;;12.90;1.00;;;;;;5133085;27;20494;-68
2021/03/11 12:15:01;;;;;;;56.87;2.80;;;13.10;1.00;;;;;;5133502;27;20812;-68
2021/03/11 12:17:28;;;;;;;56.40;2.23;;;13.20;1.00;;;;;;5133492;27;20510;-68
2021/03/11 12:19:54;;;;;;;57.87;2.63;;;13.40;1.00;;;;;;5126845;27;20533;-68
2021/03/11 12:22:20;;;;;;;56.20;2.60;;;13.60;1.00;;;;;;5125812;27;20499;-69
2021/03/11 12:24:48;;;;;;;57.17;2.70;;;13.60;1.00;;;;;;5128447;27;20537;-69
2021/03/11 12:27:14;;;;;;;57.47;2.97;;;13.70;1.00;;;;;;5121404;27;20989;-68
2021/03/11 12:29:40;;;;;;;56.23;2.50;;;13.80;1.00;;;;;;5130064;27;20577;-69
2021/03/11 12:32:08;;;;;;;55.60;2.20;;;13.80;1.00;;;;;;5127437;27;20567;-68
2021/03/11 12:34:34;;;;;;;56.37;2.40;;;13.90;1.00;;;;;;5132779;27;20440;-68
2021/03/11 12:37:01;;;;;;;56.20;2.63;;;14.10;1.00;;;;;;5133055;27;20565;-69
2021/03/11 12:39:27;;;;;;;56.17;2.07;;;14.80;1.00;;;;;;5132659;27;20448;-69
2021/03/11 12:41:55;;;;;;;56.07;2.30;;;15.90;1.00;;;;;;5132986;27;20444;-69
2021/03/11 12:44:21;;;;;;;56.30;2.50;;;16.40;1.00;;;;;;5132889;27;20449;-68
2021/03/11 12:46:47;;;;;;;56.57;2.30;;;16.80;1.00;;;;;;5128480;27;20474;-69
2021/03/11 12:49:14;;;;;;;56.50;2.43;;;16.60;1.00;;;;;;5132761;27;20454;-69
2021/03/11 12:51:40;;;;;;;56.27;2.50;;;16.40;1.00;;;;;;5127120;27;20481;-69
2021/03/11 12:54:06;;;;;;;56.10;2.40;;;16.40;1.00;;;;;;5132394;27;20456;-69
2021/03/11 12:56:33;;;;;;;56.00;2.50;;;16.50;1.00;;;;;;5132468;27;20874;-68
2021/03/11 12:59:00;;;;;;;59.90;2.40;;;16.60;1.00;;;;;;5131789;27;20453;-68